sensor_id;sensor_type;location;lat;lon;timestamp;P1;durP1;ratioP1;P2;durP2;ratioP2
44428;SDS011;30134;47.866;-4.222;2023-07-20T00:02:15;19.10;;;13.85;;
44428;SDS011;30134;47.866;-4.222;2023-07-20T00:04:41;17.27;;;12.50;;
44428;SDS011;30134;47.866;-4.222;2023-07-20T00:07:07;17.95;;;12.52;;
44428;SDS011;30134;47.866;-4.222;2023-07-20T00:09:33;16.30;;;11.55;;
44428;SDS011;30134;47.866;-4.222;2023-07-20T00:11:59;15.57;;;10.85;;
44428;SDS011;30134;47.866;-4.222;2023-07-20T00:14:25;13.20;;;9.80;;
44428;SDS011;30134;47.866;-4.222;2023-07-20T00:16:54;14.27;;;9.93;;
44428;SDS011;30134;47.866;-4.222;2023-07-20T00:19:25;12.98;;;9.48;;
44428;SDS011;30134;47.866;-4.222;2023-07-20T00:21:52;15.07;;;9.90;;
44428;SDS011;30134;47.866;-4.222;2023-07-20T00:24:20;11.68;;;8.60;;
44428;SDS011;30134;47.866;-4.222;2023-07-20T00:26:46;14.00;;;8.63;;
44428;SDS011;30134;47.866;-4.222;2023-07-20T00:29:12;11.35;;;7.95;;
44428;SDS011;30134;47.866;-4.222;2023-07-20T00:31:38;12.50;;;7.70;;
44428;SDS011;30134;47.866;-4.222;2023-07-20T00:34:05;10.55;;;7.50;;
44428;SDS011;30134;47.866;-4.222;2023-07-20T00:36:32;8.90;;;6.95;;
44428;SDS011;30134;47.866;-4.222;2023-07-20T00:38:58;9.75;;;6.72;;
44428;SDS011;30134;47.866;-4.222;2023-07-20T00:41:24;7.85;;;6.40;;
44428;SDS011;30134;47.866;-4.222;2023-07-20T00:43:54;8.48;;;6.20;;
44428;SDS011;30134;47.866;-4.222;2023-07-20T00:46:22;8.18;;;5.60;;
44428;SDS011;30134;47.866;-4.222;2023-07-20T00:48:50;9.13;;;5.97;;
44428;SDS011;30134;47.866;-4.222;2023-07-20T00:51:18;8.75;;;5.30;;
44428;SDS011;30134;47.866;-4.222;2023-07-20T00:53:45;7.45;;;5.47;;
44428;SDS011;30134;47.866;-4.222;2023-07-20T00:56:12;7.43;;;5.60;;
44428;SDS011;30134;47.866;-4.222;2023-07-20T00:58:38;7.00;;;4.75;;
44428;SDS011;30134;47.866;-4.222;2023-07-20T01:01:04;8.05;;;4.57;;
44428;SDS011;30134;47.866;-4.222;2023-07-20T01:03:30;7.15;;;4.63;;
44428;SDS011;30134;47.866;-4.222;2023-07-20T01:06:03;7.20;;;4.47;;
44428;SDS011;30134;47.866;-4.222;2023-07-20T01:12:33;7.03;;;3.72;;
44428;SDS011;30134;47.866;-4.222;2023-07-20T01:14:48;5.53;;;4.15;;
44428;SDS011;30134;47.866;-4.222;2023-07-20T01:17:15;4.63;;;3.67;;
44428;SDS011;30134;47.866;-4.222;2023-07-20T01:19:43;5.22;;;3.72;;
44428;SDS011;30134;47.866;-4.222;2023-07-20T01:31:43;4.00;;;3.15;;
44428;SDS011;30134;47.866;-4.222;2023-07-20T01:34:11;4.30;;;3.28;;
44428;SDS011;30134;47.866;-4.222;2023-07-20T01:36:40;4.45;;;3.78;;
44428;SDS011;30134;47.866;-4.222;2023-07-20T01:39:08;3.95;;;3.53;;
44428;SDS011;30134;47.866;-4.222;2023-07-20T01:41:35;4.65;;;3.10;;
44428;SDS011;30134;47.866;-4.222;2023-07-20T01:44:03;3.70;;;3.13;;
44428;SDS011;30134;47.866;-4.222;2023-07-20T01:46:30;4.53;;;3.80;;
44428;SDS011;30134;47.866;-4.222;2023-07-20T01:48:57;6.63;;;3.80;;
44428;SDS011;30134;47.866;-4.222;2023-07-20T01:51:23;6.10;;;4.07;;
44428;SDS011;30134;47.866;-4.222;2023-07-20T01:53:50;6.55;;;3.60;;
44428;SDS011;30134;47.866;-4.222;2023-07-20T01:56:16;7.30;;;4.43;;
44428;SDS011;30134;47.866;-4.222;2023-07-20T01:58:43;5.50;;;4.30;;
44428;SDS011;30134;47.866;-4.222;2023-07-20T02:01:09;5.65;;;3.50;;
44428;SDS011;30134;47.866;-4.222;2023-07-20T02:03:35;5.05;;;3.70;;
44428;SDS011;30134;47.866;-4.222;2023-07-20T02:06:01;5.32;;;4.25;;
44428;SDS011;30134;47.866;-4.222;2023-07-20T02:08:27;5.50;;;3.72;;
44428;SDS011;30134;47.866;-4.222;2023-07-20T02:10:53;5.00;;;3.72;;
44428;SDS011;30134;47.866;-4.222;2023-07-20T02:13:19;5.30;;;3.40;;
44428;SDS011;30134;47.866;-4.222;2023-07-20T02:15:45;4.57;;;3.30;;
44428;SDS011;30134;47.866;-4.222;2023-07-20T02:18:14;5.03;;;3.40;;
44428;SDS011;30134;47.866;-4.222;2023-07-20T02:20:41;5.60;;;3.58;;
44428;SDS011;30134;47.866;-4.222;2023-07-20T02:23:07;4.03;;;3.20;;
44428;SDS011;30134;47.866;-4.222;2023-07-20T02:25:35;4.82;;;3.25;;
44428;SDS011;30134;47.866;-4.222;2023-07-20T02:28:01;4.70;;;3.08;;
44428;SDS011;30134;47.866;-4.222;2023-07-20T02:30:30;5.75;;;3.13;;
44428;SDS011;30134;47.866;-4.222;2023-07-20T02:32:56;4.32;;;3.30;;
44428;SDS011;30134;47.866;-4.222;2023-07-20T02:35:24;4.03;;;3.30;;
44428;SDS011;30134;47.866;-4.222;2023-07-20T02:37:50;4.78;;;2.92;;
44428;SDS011;30134;47.866;-4.222;2023-07-20T02:40:16;5.07;;;2.97;;
44428;SDS011;30134;47.866;-4.222;2023-07-20T02:42:42;4.90;;;2.95;;
44428;SDS011;30134;47.866;-4.222;2023-07-20T02:45:08;3.65;;;2.78;;
44428;SDS011;30134;47.866;-4.222;2023-07-20T02:47:34;3.90;;;2.58;;
44428;SDS011;30134;47.866;-4.222;2023-07-20T02:50:06;4.28;;;2.67;;
44428;SDS011;30134;47.866;-4.222;2023-07-20T02:52:33;2.90;;;2.60;;
44428;SDS011;30134;47.866;-4.222;2023-07-20T02:54:59;3.58;;;2.80;;
44428;SDS011;30134;47.866;-4.222;2023-07-20T02:57:26;2.80;;;2.20;;
44428;SDS011;30134;47.866;-4.222;2023-07-20T02:59:52;3.50;;;2.60;;
44428;SDS011;30134;47.866;-4.222;2023-07-20T03:02:19;3.72;;;2.35;;
44428;SDS011;30134;47.866;-4.222;2023-07-20T03:04:45;3.50;;;2.63;;
44428;SDS011;30134;47.866;-4.222;2023-07-20T03:07:11;3.90;;;2.65;;
44428;SDS011;30134;47.866;-4.222;2023-07-20T03:09:37;3.85;;;2.60;;
44428;SDS011;30134;47.866;-4.222;2023-07-20T03:12:03;3.35;;;2.78;;
44428;SDS011;30134;47.866;-4.222;2023-07-20T03:14:30;3.47;;;2.72;;
44428;SDS011;30134;47.866;-4.222;2023-07-20T03:16:56;2.92;;;2.60;;
44428;SDS011;30134;47.866;-4.222;2023-07-20T03:19:22;3.17;;;2.47;;
44428;SDS011;30134;47.866;-4.222;2023-07-20T03:21:48;4.32;;;2.50;;
44428;SDS011;30134;47.866;-4.222;2023-07-20T03:24:15;2.78;;;2.30;;
44428;SDS011;30134;47.866;-4.222;2023-07-20T03:26:42;3.88;;;2.80;;
44428;SDS011;30134;47.866;-4.222;2023-07-20T03:29:08;3.70;;;3.00;;
44428;SDS011;30134;47.866;-4.222;2023-07-20T03:31:34;4.65;;;3.10;;
44428;SDS011;30134;47.866;-4.222;2023-07-20T03:34:00;5.38;;;3.78;;
44428;SDS011;30134;47.866;-4.222;2023-07-20T03:36:27;3.65;;;3.08;;
44428;SDS011;30134;47.866;-4.222;2023-07-20T03:38:53;3.95;;;2.92;;
44428;SDS011;30134;47.866;-4.222;2023-07-20T03:41:20;3.75;;;3.20;;
44428;SDS011;30134;47.866;-4.222;2023-07-20T03:43:49;3.63;;;3.05;;
44428;SDS011;30134;47.866;-4.222;2023-07-20T03:46:15;3.55;;;3.13;;
44428;SDS011;30134;47.866;-4.222;2023-07-20T03:48:41;4.85;;;3.22;;
44428;SDS011;30134;47.866;-4.222;2023-07-20T03:51:07;3.35;;;2.67;;
44428;SDS011;30134;47.866;-4.222;2023-07-20T03:53:33;3.85;;;3.00;;
44428;SDS011;30134;47.866;-4.222;2023-07-20T03:55:59;3.65;;;2.90;;
44428;SDS011;30134;47.866;-4.222;2023-07-20T03:58:25;3.38;;;2.72;;
44428;SDS011;30134;47.866;-4.222;2023-07-20T04:00:51;3.20;;;2.40;;
44428;SDS011;30134;47.866;-4.222;2023-07-20T04:03:18;3.75;;;2.80;;
44428;SDS011;30134;47.866;-4.222;2023-07-20T04:05:45;4.13;;;2.70;;
44428;SDS011;30134;47.866;-4.222;2023-07-20T04:08:12;3.90;;;3.05;;
44428;SDS011;30134;47.866;-4.222;2023-07-20T04:10:38;4.13;;;3.10;;
44428;SDS011;30134;47.866;-4.222;2023-07-20T04:13:04;4.85;;;3.40;;
44428;SDS011;30134;47.866;-4.222;2023-07-20T04:15:31;4.43;;;3.22;;
44428;SDS011;30134;47.866;-4.222;2023-07-20T04:17:57;3.67;;;3.05;;
44428;SDS011;30134;47.866;-4.222;2023-07-20T04:20:24;4.90;;;2.97;;
44428;SDS011;30134;47.866;-4.222;2023-07-20T04:22:52;4.00;;;3.50;;
44428;SDS011;30134;47.866;-4.222;2023-07-20T04:25:19;5.30;;;3.97;;
44428;SDS011;30134;47.866;-4.222;2023-07-20T04:27:45;6.97;;;4.13;;
44428;SDS011;30134;47.866;-4.222;2023-07-20T04:30:11;5.53;;;4.38;;
44428;SDS011;30134;47.866;-4.222;2023-07-20T04:32:38;6.22;;;4.70;;
44428;SDS011;30134;47.866;-4.222;2023-07-20T04:35:09;6.18;;;4.60;;
44428;SDS011;30134;47.866;-4.222;2023-07-20T04:37:35;5.47;;;4.18;;
44428;SDS011;30134;47.866;-4.222;2023-07-20T04:40:01;6.03;;;4.47;;
44428;SDS011;30134;47.866;-4.222;2023-07-20T04:42:27;6.93;;;4.97;;
44428;SDS011;30134;47.866;-4.222;2023-07-20T04:44:53;6.47;;;4.55;;
44428;SDS011;30134;47.866;-4.222;2023-07-20T04:47:19;5.90;;;4.55;;
44428;SDS011;30134;47.866;-4.222;2023-07-20T04:49:47;5.10;;;4.35;;
44428;SDS011;30134;47.866;-4.222;2023-07-20T04:52:13;7.55;;;4.43;;
44428;SDS011;30134;47.866;-4.222;2023-07-20T04:54:39;5.20;;;4.22;;
44428;SDS011;30134;47.866;-4.222;2023-07-20T04:57:09;6.40;;;4.35;;
44428;SDS011;30134;47.866;-4.222;2023-07-20T04:59:36;5.40;;;4.13;;
44428;SDS011;30134;47.866;-4.222;2023-07-20T05:02:02;5.15;;;4.00;;
44428;SDS011;30134;47.866;-4.222;2023-07-20T05:04:28;5.18;;;4.00;;
44428;SDS011;30134;47.866;-4.222;2023-07-20T05:06:54;4.97;;;3.85;;
44428;SDS011;30134;47.866;-4.222;2023-07-20T05:09:20;5.72;;;4.00;;
44428;SDS011;30134;47.866;-4.222;2023-07-20T05:11:48;5.43;;;3.88;;
44428;SDS011;30134;47.866;-4.222;2023-07-20T05:14:14;4.32;;;3.40;;
44428;SDS011;30134;47.866;-4.222;2023-07-20T05:16:40;4.10;;;3.22;;
44428;SDS011;30134;47.866;-4.222;2023-07-20T05:19:12;4.82;;;3.30;;
44428;SDS011;30134;47.866;-4.222;2023-07-20T05:21:38;5.32;;;3.05;;
44428;SDS011;30134;47.866;-4.222;2023-07-20T05:24:04;3.78;;;3.10;;
44428;SDS011;30134;47.866;-4.222;2023-07-20T05:26:31;4.85;;;3.03;;
44428;SDS011;30134;47.866;-4.222;2023-07-20T05:28:58;4.57;;;3.22;;
44428;SDS011;30134;47.866;-4.222;2023-07-20T05:31:24;6.18;;;2.75;;
44428;SDS011;30134;47.866;-4.222;2023-07-20T05:33:51;4.07;;;3.10;;
44428;SDS011;30134;47.866;-4.222;2023-07-20T05:36:17;5.18;;;3.20;;
44428;SDS011;30134;47.866;-4.222;2023-07-20T05:38:43;3.97;;;3.28;;
44428;SDS011;30134;47.866;-4.222;2023-07-20T05:41:09;3.38;;;2.65;;
44428;SDS011;30134;47.866;-4.222;2023-07-20T05:43:35;3.40;;;2.78;;
44428;SDS011;30134;47.866;-4.222;2023-07-20T05:46:01;3.58;;;2.80;;
44428;SDS011;30134;47.866;-4.222;2023-07-20T05:48:27;3.25;;;2.55;;
44428;SDS011;30134;47.866;-4.222;2023-07-20T05:50:53;3.58;;;2.85;;
44428;SDS011;30134;47.866;-4.222;2023-07-20T05:53:19;3.70;;;2.90;;
44428;SDS011;30134;47.866;-4.222;2023-07-20T05:55:51;3.35;;;2.63;;
44428;SDS011;30134;47.866;-4.222;2023-07-20T05:58:18;5.13;;;2.92;;
44428;SDS011;30134;47.866;-4.222;2023-07-20T06:00:47;3.67;;;2.72;;
44428;SDS011;30134;47.866;-4.222;2023-07-20T06:03:14;3.78;;;2.78;;
44428;SDS011;30134;47.866;-4.222;2023-07-20T06:05:42;5.53;;;2.72;;
44428;SDS011;30134;47.866;-4.222;2023-07-20T06:08:08;3.70;;;2.60;;
44428;SDS011;30134;47.866;-4.222;2023-07-20T06:10:34;3.97;;;2.60;;
44428;SDS011;30134;47.866;-4.222;2023-07-20T06:13:00;4.15;;;2.80;;
44428;SDS011;30134;47.866;-4.222;2023-07-20T06:15:27;6.38;;;2.58;;
44428;SDS011;30134;47.866;-4.222;2023-07-20T06:17:58;2.95;;;2.65;;
44428;SDS011;30134;47.866;-4.222;2023-07-20T06:20:25;4.15;;;2.58;;
44428;SDS011;30134;47.866;-4.222;2023-07-20T06:22:52;6.80;;;3.00;;
44428;SDS011;30134;47.866;-4.222;2023-07-20T06:25:20;3.35;;;2.20;;
44428;SDS011;30134;47.866;-4.222;2023-07-20T06:27:46;4.10;;;2.47;;
44428;SDS011;30134;47.866;-4.222;2023-07-20T06:30:14;3.45;;;2.55;;
44428;SDS011;30134;47.866;-4.222;2023-07-20T06:32:40;3.10;;;2.35;;
44428;SDS011;30134;47.866;-4.222;2023-07-20T06:35:07;3.28;;;2.10;;
44428;SDS011;30134;47.866;-4.222;2023-07-20T06:37:33;3.38;;;2.50;;
44428;SDS011;30134;47.866;-4.222;2023-07-20T06:40:01;4.30;;;2.53;;
44428;SDS011;30134;47.866;-4.222;2023-07-20T06:42:30;3.45;;;2.25;;
44428;SDS011;30134;47.866;-4.222;2023-07-20T06:44:56;7.50;;;3.53;;
44428;SDS011;30134;47.866;-4.222;2023-07-20T06:47:24;15.85;;;6.07;;
44428;SDS011;30134;47.866;-4.222;2023-07-20T06:49:50;25.33;;;9.15;;
44428;SDS011;30134;47.866;-4.222;2023-07-20T06:52:16;26.75;;;10.02;;
44428;SDS011;30134;47.866;-4.222;2023-07-20T06:54:42;28.95;;;9.52;;
44428;SDS011;30134;47.866;-4.222;2023-07-20T06:57:08;18.77;;;7.15;;
44428;SDS011;30134;47.866;-4.222;2023-07-20T06:59:35;14.32;;;5.50;;
44428;SDS011;30134;47.866;-4.222;2023-07-20T07:02:01;12.68;;;5.28;;
44428;SDS011;30134;47.866;-4.222;2023-07-20T07:04:27;10.65;;;4.32;;
44428;SDS011;30134;47.866;-4.222;2023-07-20T07:06:53;9.93;;;3.90;;
44428;SDS011;30134;47.866;-4.222;2023-07-20T07:09:19;11.48;;;3.95;;
44428;SDS011;30134;47.866;-4.222;2023-07-20T07:11:46;6.60;;;3.15;;
44428;SDS011;30134;47.866;-4.222;2023-07-20T07:14:12;6.50;;;3.30;;
44428;SDS011;30134;47.866;-4.222;2023-07-20T07:16:38;7.03;;;3.58;;
44428;SDS011;30134;47.866;-4.222;2023-07-20T07:19:04;6.28;;;3.35;;
44428;SDS011;30134;47.866;-4.222;2023-07-20T07:21:33;4.85;;;2.42;;
44428;SDS011;30134;47.866;-4.222;2023-07-20T07:24:02;6.50;;;3.10;;
44428;SDS011;30134;47.866;-4.222;2023-07-20T07:26:29;4.88;;;2.60;;
44428;SDS011;30134;47.866;-4.222;2023-07-20T07:28:59;4.25;;;2.42;;
44428;SDS011;30134;47.866;-4.222;2023-07-20T07:31:26;6.32;;;2.45;;
44428;SDS011;30134;47.866;-4.222;2023-07-20T07:33:53;4.45;;;2.30;;
44428;SDS011;30134;47.866;-4.222;2023-07-20T07:36:19;3.70;;;2.22;;
44428;SDS011;30134;47.866;-4.222;2023-07-20T07:38:46;5.13;;;2.55;;
44428;SDS011;30134;47.866;-4.222;2023-07-20T07:41:13;5.10;;;1.90;;
44428;SDS011;30134;47.866;-4.222;2023-07-20T07:43:39;2.90;;;2.00;;
44428;SDS011;30134;47.866;-4.222;2023-07-20T07:46:05;3.58;;;2.13;;
44428;SDS011;30134;47.866;-4.222;2023-07-20T07:48:31;3.53;;;2.20;;
44428;SDS011;30134;47.866;-4.222;2023-07-20T07:50:57;2.95;;;1.98;;
44428;SDS011;30134;47.866;-4.222;2023-07-20T07:53:23;2.38;;;1.92;;
44428;SDS011;30134;47.866;-4.222;2023-07-20T07:55:51;3.38;;;2.00;;
44428;SDS011;30134;47.866;-4.222;2023-07-20T07:58:18;3.58;;;1.85;;
44428;SDS011;30134;47.866;-4.222;2023-07-20T08:00:44;2.58;;;1.63;;
44428;SDS011;30134;47.866;-4.222;2023-07-20T08:03:10;3.38;;;2.10;;
44428;SDS011;30134;47.866;-4.222;2023-07-20T08:05:36;2.97;;;1.90;;
44428;SDS011;30134;47.866;-4.222;2023-07-20T08:08:02;2.15;;;1.60;;
44428;SDS011;30134;47.866;-4.222;2023-07-20T08:10:31;4.20;;;2.15;;
44428;SDS011;30134;47.866;-4.222;2023-07-20T08:12:57;5.97;;;1.80;;
44428;SDS011;30134;47.866;-4.222;2023-07-20T08:15:23;3.20;;;1.90;;
44428;SDS011;30134;47.866;-4.222;2023-07-20T08:17:49;5.85;;;2.28;;
44428;SDS011;30134;47.866;-4.222;2023-07-20T08:20:18;5.63;;;1.83;;
44428;SDS011;30134;47.866;-4.222;2023-07-20T08:22:44;5.32;;;1.98;;
44428;SDS011;30134;47.866;-4.222;2023-07-20T08:25:10;4.40;;;2.00;;
44428;SDS011;30134;47.866;-4.222;2023-07-20T08:27:37;6.20;;;2.15;;
44428;SDS011;30134;47.866;-4.222;2023-07-20T08:30:03;5.90;;;2.35;;
44428;SDS011;30134;47.866;-4.222;2023-07-20T08:32:30;3.58;;;1.67;;
44428;SDS011;30134;47.866;-4.222;2023-07-20T08:34:57;5.63;;;1.98;;
44428;SDS011;30134;47.866;-4.222;2023-07-20T08:37:24;5.13;;;1.98;;
44428;SDS011;30134;47.866;-4.222;2023-07-20T08:39:50;5.05;;;2.00;;
44428;SDS011;30134;47.866;-4.222;2023-07-20T08:42:16;4.55;;;2.15;;
44428;SDS011;30134;47.866;-4.222;2023-07-20T08:44:42;5.82;;;1.60;;
44428;SDS011;30134;47.866;-4.222;2023-07-20T08:47:10;5.20;;;1.80;;
44428;SDS011;30134;47.866;-4.222;2023-07-20T08:49:39;5.80;;;1.88;;
44428;SDS011;30134;47.866;-4.222;2023-07-20T08:52:05;5.43;;;1.88;;
44428;SDS011;30134;47.866;-4.222;2023-07-20T08:54:32;5.10;;;1.80;;
44428;SDS011;30134;47.866;-4.222;2023-07-20T08:57:03;4.35;;;1.80;;
44428;SDS011;30134;47.866;-4.222;2023-07-20T08:59:30;4.50;;;2.05;;
44428;SDS011;30134;47.866;-4.222;2023-07-20T09:01:58;3.85;;;1.88;;
44428;SDS011;30134;47.866;-4.222;2023-07-20T09:04:26;2.17;;;1.55;;
44428;SDS011;30134;47.866;-4.222;2023-07-20T09:06:52;3.05;;;1.73;;
44428;SDS011;30134;47.866;-4.222;2023-07-20T09:09:18;2.67;;;1.67;;
44428;SDS011;30134;47.866;-4.222;2023-07-20T09:11:51;2.13;;;1.70;;
44428;SDS011;30134;47.866;-4.222;2023-07-20T09:14:17;4.60;;;1.80;;
44428;SDS011;30134;47.866;-4.222;2023-07-20T09:16:51;3.90;;;1.60;;
44428;SDS011;30134;47.866;-4.222;2023-07-20T09:19:20;4.18;;;1.55;;
44428;SDS011;30134;47.866;-4.222;2023-07-20T09:21:47;3.72;;;1.50;;
44428;SDS011;30134;47.866;-4.222;2023-07-20T09:24:16;2.08;;;1.50;;
44428;SDS011;30134;47.866;-4.222;2023-07-20T09:26:44;4.15;;;1.58;;
44428;SDS011;30134;47.866;-4.222;2023-07-20T09:29:14;3.42;;;1.85;;
44428;SDS011;30134;47.866;-4.222;2023-07-20T09:32:01;3.87;;;1.63;;
44428;SDS011;30134;47.866;-4.222;2023-07-20T09:34:32;5.43;;;1.95;;
44428;SDS011;30134;47.866;-4.222;2023-07-20T09:36:59;5.05;;;1.70;;
44428;SDS011;30134;47.866;-4.222;2023-07-20T09:39:26;7.47;;;1.80;;
44428;SDS011;30134;47.866;-4.222;2023-07-20T09:41:56;2.88;;;1.67;;
44428;SDS011;30134;47.866;-4.222;2023-07-20T09:44:30;3.53;;;1.48;;
44428;SDS011;30134;47.866;-4.222;2023-07-20T09:46:56;2.95;;;1.45;;
44428;SDS011;30134;47.866;-4.222;2023-07-20T09:49:22;4.20;;;1.58;;
44428;SDS011;30134;47.866;-4.222;2023-07-20T09:51:47;4.50;;;1.20;;
44428;SDS011;30134;47.866;-4.222;2023-07-20T09:54:14;4.03;;;1.50;;
44428;SDS011;30134;47.866;-4.222;2023-07-20T09:56:42;4.57;;;1.85;;
44428;SDS011;30134;47.866;-4.222;2023-07-20T09:59:08;3.63;;;1.67;;
44428;SDS011;30134;47.866;-4.222;2023-07-20T10:01:34;3.40;;;1.60;;
44428;SDS011;30134;47.866;-4.222;2023-07-20T10:04:03;3.88;;;2.30;;
44428;SDS011;30134;47.866;-4.222;2023-07-20T10:06:32;2.20;;;1.33;;
44428;SDS011;30134;47.866;-4.222;2023-07-20T10:09:00;3.90;;;1.70;;
44428;SDS011;30134;47.866;-4.222;2023-07-20T10:11:32;5.22;;;1.90;;
44428;SDS011;30134;47.866;-4.222;2023-07-20T10:14:04;3.72;;;1.88;;
44428;SDS011;30134;47.866;-4.222;2023-07-20T10:16:34;4.43;;;1.90;;
44428;SDS011;30134;47.866;-4.222;2023-07-20T10:19:17;5.72;;;1.95;;
44428;SDS011;30134;47.866;-4.222;2023-07-20T10:22:19;3.35;;;1.77;;
44428;SDS011;30134;47.866;-4.222;2023-07-20T10:24:56;3.97;;;1.80;;
44428;SDS011;30134;47.866;-4.222;2023-07-20T10:27:23;6.90;;;2.17;;
44428;SDS011;30134;47.866;-4.222;2023-07-20T10:29:50;4.68;;;1.88;;
44428;SDS011;30134;47.866;-4.222;2023-07-20T10:32:20;8.27;;;1.85;;
44428;SDS011;30134;47.866;-4.222;2023-07-20T10:34:50;3.22;;;1.80;;
44428;SDS011;30134;47.866;-4.222;2023-07-20T10:40:31;6.90;;;1.90;;
44428;SDS011;30134;47.866;-4.222;2023-07-20T10:43:05;2.92;;;1.90;;
44428;SDS011;30134;47.866;-4.222;2023-07-20T10:45:47;5.38;;;2.00;;
44428;SDS011;30134;47.866;-4.222;2023-07-20T10:48:16;3.83;;;1.85;;
44428;SDS011;30134;47.866;-4.222;2023-07-20T10:50:46;3.80;;;2.28;;
44428;SDS011;30134;47.866;-4.222;2023-07-20T10:53:48;3.88;;;1.80;;
44428;SDS011;30134;47.866;-4.222;2023-07-20T10:56:19;4.55;;;1.77;;
44428;SDS011;30134;47.866;-4.222;2023-07-20T10:58:47;2.65;;;1.70;;
44428;SDS011;30134;47.866;-4.222;2023-07-20T11:01:14;4.82;;;2.00;;
44428;SDS011;30134;47.866;-4.222;2023-07-20T11:03:43;3.33;;;1.88;;
44428;SDS011;30134;47.866;-4.222;2023-07-20T11:06:42;4.13;;;1.83;;
44428;SDS011;30134;47.866;-4.222;2023-07-20T11:09:09;5.78;;;1.60;;
44428;SDS011;30134;47.866;-4.222;2023-07-20T11:11:40;3.22;;;1.50;;
44428;SDS011;30134;47.866;-4.222;2023-07-20T11:16:48;5.55;;;1.98;;
44428;SDS011;30134;47.866;-4.222;2023-07-20T11:19:19;3.85;;;2.00;;
44428;SDS011;30134;47.866;-4.222;2023-07-20T11:21:51;5.43;;;1.92;;
44428;SDS011;30134;47.866;-4.222;2023-07-20T11:24:22;4.60;;;2.13;;
44428;SDS011;30134;47.866;-4.222;2023-07-20T11:26:53;26.00;;;15.82;;
44428;SDS011;30134;47.866;-4.222;2023-07-20T11:29:21;61.80;;;38.90;;
44428;SDS011;30134;47.866;-4.222;2023-07-20T11:31:50;37.78;;;25.48;;
44428;SDS011;30134;47.866;-4.222;2023-07-20T11:34:17;30.67;;;20.00;;
44428;SDS011;30134;47.866;-4.222;2023-07-20T11:36:50;29.45;;;20.40;;
44428;SDS011;30134;47.866;-4.222;2023-07-20T11:39:17;26.25;;;18.45;;
44428;SDS011;30134;47.866;-4.222;2023-07-20T11:41:50;19.08;;;12.63;;
44428;SDS011;30134;47.866;-4.222;2023-07-20T11:44:23;9.60;;;5.43;;
44428;SDS011;30134;47.866;-4.222;2023-07-20T11:49:38;8.38;;;3.55;;
44428;SDS011;30134;47.866;-4.222;2023-07-20T11:52:14;4.25;;;3.00;;
44428;SDS011;30134;47.866;-4.222;2023-07-20T11:54:42;5.13;;;3.28;;
44428;SDS011;30134;47.866;-4.222;2023-07-20T11:57:16;7.05;;;2.78;;
44428;SDS011;30134;47.866;-4.222;2023-07-20T11:59:55;4.32;;;2.17;;
44428;SDS011;30134;47.866;-4.222;2023-07-20T12:02:36;4.97;;;2.05;;
44428;SDS011;30134;47.866;-4.222;2023-07-20T12:05:04;4.00;;;2.00;;
44428;SDS011;30134;47.866;-4.222;2023-07-20T12:07:34;4.85;;;2.15;;
44428;SDS011;30134;47.866;-4.222;2023-07-20T12:10:05;6.65;;;1.52;;
44428;SDS011;30134;47.866;-4.222;2023-07-20T12:12:40;2.78;;;1.70;;
44428;SDS011;30134;47.866;-4.222;2023-07-20T12:15:14;2.35;;;1.65;;
44428;SDS011;30134;47.866;-4.222;2023-07-20T12:18:00;5.07;;;1.90;;
44428;SDS011;30134;47.866;-4.222;2023-07-20T12:20:36;5.35;;;1.90;;
44428;SDS011;30134;47.866;-4.222;2023-07-20T12:23:12;2.00;;;1.50;;
44428;SDS011;30134;47.866;-4.222;2023-07-20T12:25:42;2.78;;;1.90;;
44428;SDS011;30134;47.866;-4.222;2023-07-20T12:30:43;2.90;;;1.40;;
44428;SDS011;30134;47.866;-4.222;2023-07-20T12:33:10;2.13;;;1.35;;
44428;SDS011;30134;47.866;-4.222;2023-07-20T12:35:42;4.18;;;1.70;;
44428;SDS011;30134;47.866;-4.222;2023-07-20T12:38:08;3.10;;;1.60;;
44428;SDS011;30134;47.866;-4.222;2023-07-20T12:40:35;2.38;;;1.50;;
44428;SDS011;30134;47.866;-4.222;2023-07-20T12:43:01;2.53;;;1.80;;
44428;SDS011;30134;47.866;-4.222;2023-07-20T12:45:27;3.72;;;1.88;;
44428;SDS011;30134;47.866;-4.222;2023-07-20T12:47:53;6.47;;;1.90;;
44428;SDS011;30134;47.866;-4.222;2023-07-20T12:50:19;3.20;;;1.55;;
44428;SDS011;30134;47.866;-4.222;2023-07-20T12:52:45;2.75;;;1.55;;
44428;SDS011;30134;47.866;-4.222;2023-07-20T12:55:11;2.55;;;1.40;;
44428;SDS011;30134;47.866;-4.222;2023-07-20T12:57:37;2.38;;;1.73;;
44428;SDS011;30134;47.866;-4.222;2023-07-20T13:00:08;4.72;;;1.60;;
44428;SDS011;30134;47.866;-4.222;2023-07-20T13:02:37;3.15;;;1.40;;
44428;SDS011;30134;47.866;-4.222;2023-07-20T13:05:04;3.47;;;1.70;;
44428;SDS011;30134;47.866;-4.222;2023-07-20T13:07:31;3.03;;;1.60;;
44428;SDS011;30134;47.866;-4.222;2023-07-20T13:10:07;2.42;;;1.58;;
44428;SDS011;30134;47.866;-4.222;2023-07-20T13:12:35;1.92;;;1.48;;
44428;SDS011;30134;47.866;-4.222;2023-07-20T13:15:02;3.38;;;1.65;;
44428;SDS011;30134;47.866;-4.222;2023-07-20T13:17:36;2.47;;;1.50;;
44428;SDS011;30134;47.866;-4.222;2023-07-20T13:20:05;2.65;;;1.33;;
44428;SDS011;30134;47.866;-4.222;2023-07-20T13:22:35;2.60;;;1.55;;
44428;SDS011;30134;47.866;-4.222;2023-07-20T13:25:05;3.33;;;1.60;;
44428;SDS011;30134;47.866;-4.222;2023-07-20T13:27:33;1.30;;;1.20;;
44428;SDS011;30134;47.866;-4.222;2023-07-20T13:29:59;2.20;;;1.30;;
44428;SDS011;30134;47.866;-4.222;2023-07-20T13:32:26;1.65;;;1.30;;
44428;SDS011;30134;47.866;-4.222;2023-07-20T13:34:53;2.60;;;1.42;;
44428;SDS011;30134;47.866;-4.222;2023-07-20T13:37:19;2.53;;;1.50;;
44428;SDS011;30134;47.866;-4.222;2023-07-20T13:39:45;4.03;;;1.48;;
44428;SDS011;30134;47.866;-4.222;2023-07-20T13:42:11;2.63;;;1.42;;
44428;SDS011;30134;47.866;-4.222;2023-07-20T13:44:38;2.00;;;1.30;;
44428;SDS011;30134;47.866;-4.222;2023-07-20T13:47:04;4.80;;;1.80;;
44428;SDS011;30134;47.866;-4.222;2023-07-20T13:49:30;2.55;;;1.55;;
44428;SDS011;30134;47.866;-4.222;2023-07-20T13:51:57;4.82;;;1.80;;
44428;SDS011;30134;47.866;-4.222;2023-07-20T13:54:23;14.27;;;9.25;;
44428;SDS011;30134;47.866;-4.222;2023-07-20T13:56:50;44.78;;;28.73;;
44428;SDS011;30134;47.866;-4.222;2023-07-20T13:59:17;22.17;;;12.05;;
44428;SDS011;30134;47.866;-4.222;2023-07-20T14:01:43;14.20;;;8.55;;
44428;SDS011;30134;47.866;-4.222;2023-07-20T14:04:09;7.53;;;4.40;;
44428;SDS011;30134;47.866;-4.222;2023-07-20T14:06:35;5.30;;;3.17;;
44428;SDS011;30134;47.866;-4.222;2023-07-20T14:09:01;7.35;;;2.55;;
44428;SDS011;30134;47.866;-4.222;2023-07-20T14:11:28;7.63;;;2.80;;
44428;SDS011;30134;47.866;-4.222;2023-07-20T14:13:54;4.53;;;2.63;;
44428;SDS011;30134;47.866;-4.222;2023-07-20T14:16:23;7.05;;;2.63;;
44428;SDS011;30134;47.866;-4.222;2023-07-20T14:18:50;4.03;;;2.50;;
44428;SDS011;30134;47.866;-4.222;2023-07-20T14:21:17;4.72;;;2.80;;
44428;SDS011;30134;47.866;-4.222;2023-07-20T14:23:48;5.13;;;2.40;;
44428;SDS011;30134;47.866;-4.222;2023-07-20T14:26:17;4.70;;;2.25;;
44428;SDS011;30134;47.866;-4.222;2023-07-20T14:28:44;4.53;;;2.03;;
44428;SDS011;30134;47.866;-4.222;2023-07-20T14:31:10;4.38;;;2.88;;
44428;SDS011;30134;47.866;-4.222;2023-07-20T14:33:37;3.90;;;2.58;;
44428;SDS011;30134;47.866;-4.222;2023-07-20T14:36:03;4.32;;;2.65;;
44428;SDS011;30134;47.866;-4.222;2023-07-20T14:38:30;4.68;;;2.20;;
44428;SDS011;30134;47.866;-4.222;2023-07-20T14:41:00;3.85;;;2.42;;
44428;SDS011;30134;47.866;-4.222;2023-07-20T14:43:26;2.97;;;1.85;;
44428;SDS011;30134;47.866;-4.222;2023-07-20T14:45:52;3.88;;;2.00;;
44428;SDS011;30134;47.866;-4.222;2023-07-20T14:48:19;3.50;;;2.13;;
44428;SDS011;30134;47.866;-4.222;2023-07-20T14:50:45;4.32;;;2.08;;
44428;SDS011;30134;47.866;-4.222;2023-07-20T14:53:15;4.43;;;1.77;;
44428;SDS011;30134;47.866;-4.222;2023-07-20T14:55:41;3.83;;;1.77;;
44428;SDS011;30134;47.866;-4.222;2023-07-20T14:58:13;3.70;;;1.83;;
44428;SDS011;30134;47.866;-4.222;2023-07-20T15:00:39;2.65;;;1.70;;
44428;SDS011;30134;47.866;-4.222;2023-07-20T15:03:05;3.35;;;1.85;;